Time;durP1;ratioP1;P1;durP2;ratioP2;P2;SDS_P1;SDS_P2;PMS_P1;PMS_P2;Temp;Humidity;BMP_temperature;BMP_pressure;BME280_temperature;BME280_humidity;BME280_pressure;Samples;Min_cycle;Max_cycle;Signal;HPM_P1;HPM_P2
2022/06/04 00:01:48;;;;;;;4.28;2.47;;;;;;;16.90;55.98;101047.56;5028257;28;20065;-78
2022/06/04 00:04:16;;;;;;;3.08;2.22;;;;;;;16.87;56.11;101048.63;4997615;28;20037;-79
2022/06/04 00:06:43;;;;;;;3.13;2.45;;;;;;;16.87;56.11;101051.28;5030023;28;20454;-80
2022/06/04 00:09:14;;;;;;;4.40;2.00;;;;;;;16.87;56.53;101045.13;5009487;28;20053;-80
2022/06/04 00:17:22;;;;;;;4.20;2.67;;;;;;;16.84;57.63;101048.00;5009969;28;20124;-79
2022/06/04 00:19:50;;;;;;;5.72;2.78;;;;;;;16.83;57.71;101049.00;5025808;28;20049;-82
2022/06/04 00:22:17;;;;;;;3.88;2.55;;;;;;;16.80;58.01;101039.47;5006454;28;20053;-82
2022/06/04 00:24:44;;;;;;;5.60;2.50;;;;;;;16.83;58.04;101047.19;5025231;28;20064;-81
2022/06/04 00:27:17;;;;;;;7.35;2.42;;;;;;;16.81;58.70;101046.47;5001603;28;20048;-80
2022/06/04 00:29:45;;;;;;;3.95;2.55;;;;;;;16.80;59.12;101050.09;5029239;28;20061;-80
2022/06/04 00:32:13;;;;;;;5.10;2.83;;;;;;;16.80;58.57;101042.13;5002534;28;20056;-79
2022/06/04 00:34:40;;;;;;;3.65;2.40;;;;;;;16.80;59.05;101041.28;5016826;28;20092;-79
2022/06/04 00:37:07;;;;;;;10.23;3.47;;;;;;;16.80;59.12;101033.31;5012933;28;20037;-82
2022/06/04 00:39:35;;;;;;;5.68;3.13;;;;;;;16.78;59.55;101038.72;5027951;28;20424;-80
2022/06/04 00:42:16;;;;;;;5.30;2.55;;;;;;;16.78;59.51;101040.53;5027161;28;20053;-80
2022/06/04 00:45:19;;;;;;;6.88;2.40;;;;;;;16.76;59.18;101030.03;5028335;28;20087;-82
2022/06/04 00:47:47;;;;;;;5.50;2.78;;;;;;;16.78;59.55;101030.75;5025760;28;20045;-80
2022/06/04 00:50:17;;;;;;;6.22;2.63;;;;;;;16.77;59.89;101022.91;5012062;28;20040;-80
2022/06/04 00:52:46;;;;;;;4.55;3.05;;;;;;;16.74;60.05;101028.44;5013782;28;20045;-80
2022/06/04 00:55:13;;;;;;;3.67;2.97;;;;;;;16.75;60.10;101027.47;5001120;28;20053;-81
2022/06/04 00:57:49;;;;;;;5.30;2.60;;;;;;;16.74;59.80;101025.78;5024742;28;20503;-80
2022/06/04 01:00:17;;;;;;;4.05;2.40;;;;;;;16.73;60.28;101016.97;5020541;28;20403;-80
2022/06/04 01:03:10;;;;;;;6.07;3.15;;;;;;;16.72;60.34;101017.94;5012657;28;20049;-79
2022/06/04 01:05:43;;;;;;;4.60;2.75;;;;;;;16.70;60.29;101017.16;5006316;28;20060;-77
2022/06/04 01:08:23;;;;;;;5.20;2.53;;;;;;;16.69;60.27;101018.13;5030045;28;20053;-81
2022/06/04 01:11:24;;;;;;;3.55;2.63;;;;;;;16.66;60.64;101023.69;5010964;28;20135;-80
2022/06/04 01:13:51;;;;;;;3.85;2.40;;;;;;;16.64;60.79;101020.31;5012473;28;20400;-77
2022/06/04 01:16:30;;;;;;;5.60;2.90;;;;;;;16.64;60.47;101023.81;5027254;28;20079;-80
2022/06/04 01:19:26;;;;;;;8.20;2.45;;;;;;;16.63;60.51;101027.44;5044666;28;20049;-78
2022/06/04 01:22:21;;;;;;;4.28;2.40;;;;;;;16.61;60.91;101028.50;5018613;28;20045;-80
2022/06/04 01:25:15;;;;;;;4.15;2.47;;;;;;;16.56;61.77;101026.22;5044895;28;20045;-80
2022/06/04 01:28:00;;;;;;;4.53;2.35;;;;;;;16.55;61.34;101023.69;5029425;28;20419;-78
2022/06/04 01:30:34;;;;;;;6.93;3.00;;;;;;;16.58;61.57;101031.44;5011127;28;20071;-78
2022/06/04 01:33:07;;;;;;;5.25;2.63;;;;;;;16.56;61.89;101028.03;4995193;28;20053;-79
2022/06/04 01:36:02;;;;;;;8.82;3.10;;;;;;;16.54;62.18;101029.97;5017898;28;20118;-79
2022/06/04 01:38:40;;;;;;;7.20;4.40;;;;;;;16.52;61.93;101027.41;5017262;28;20061;-77
2022/06/04 01:41:12;;;;;;;8.07;3.72;;;;;;;16.53;61.83;101025.63;4993799;28;20204;-78
2022/06/04 01:43:43;;;;;;;5.43;3.78;;;;;;;16.52;61.91;101032.72;5029257;28;20138;-79
2022/06/04 01:46:25;;;;;;;4.97;3.35;;;;;;;16.50;62.19;101028.53;5022321;28;20541;-78
2022/06/04 01:48:56;;;;;;;4.82;2.97;;;;;;;16.48;62.21;101018.03;5016100;28;20057;-82
2022/06/04 01:51:25;;;;;;;4.72;3.22;;;;;;;16.46;62.11;101015.47;5014765;28;20049;-79
2022/06/04 01:53:58;;;;;;;8.05;3.05;;;;;;;16.48;62.34;101012.72;5016648;28;20067;-79
2022/06/04 01:56:31;;;;;;;4.85;2.60;;;;;;;16.45;62.48;101011.13;5016529;28;20041;-82
2022/06/04 01:59:05;;;;;;;5.28;3.08;;;;;;;16.46;62.19;101019.94;4997421;28;20171;-79
2022/06/04 02:01:33;;;;;;;4.63;2.85;;;;;;;16.42;62.64;101011.34;5031109;28;20272;-79
2022/06/04 02:04:08;;;;;;;9.10;2.90;;;;;;;16.38;62.85;101011.69;5033167;28;20179;-79
2022/06/04 02:06:40;;;;;;;4.78;2.72;;;;;;;16.36;62.60;101014.47;4995375;28;20053;-80
2022/06/04 02:09:13;;;;;;;5.78;2.90;;;;;;;16.34;62.53;101011.09;5010923;28;20115;-79
2022/06/04 02:11:44;;;;;;;5.65;2.95;;;;;;;16.33;62.59;101008.56;4995867;28;20049;-79
2022/06/04 02:14:11;;;;;;;5.03;2.65;;;;;;;16.30;62.71;101016.75;5035969;28;20057;-83
2022/06/04 02:16:45;;;;;;;6.50;2.53;;;;;;;16.27;62.98;101009.88;5014787;28;20601;-78
2022/06/04 02:19:14;;;;;;;5.32;2.97;;;;;;;16.21;63.24;101018.31;4998142;28;20055;-79
2022/06/04 02:21:41;;;;;;;3.65;2.08;;;;;;;16.19;63.10;101014.94;5013520;28;20459;-79
2022/06/04 02:24:09;;;;;;;7.22;2.85;;;;;;;16.18;63.06;101016.75;5016369;28;20049;-79
2022/06/04 02:26:37;;;;;;;6.05;2.20;;;;;;;16.15;63.41;101016.97;5020347;28;20047;-79
2022/06/04 02:29:06;;;;;;;7.53;2.63;;;;;;;16.14;63.42;101020.59;5020321;28;20144;-79
2022/06/04 02:31:47;;;;;;;6.00;2.83;;;;;;;16.13;63.28;101016.25;5024712;28;20050;-81
2022/06/04 02:34:23;;;;;;;5.65;2.65;;;;;;;16.11;63.18;101020.81;5037012;28;20041;-79
2022/06/04 02:37:13;;;;;;;4.35;2.53;;;;;;;16.11;63.03;101017.31;4998362;28;20049;-79
2022/06/04 02:40:06;;;;;;;4.55;2.75;;;;;;;16.08;63.13;101015.75;5022400;28;20053;-82
2022/06/04 02:42:38;;;;;;;6.97;2.92;;;;;;;16.06;63.30;101022.97;5007674;28;20144;-81
2022/06/04 02:45:15;;;;;;;7.38;2.88;;;;;;;16.03;63.53;101015.25;5014205;28;20045;-80
2022/06/04 02:47:50;;;;;;;3.20;2.38;;;;;;;16.02;63.63;101021.50;4999899;28;20056;-80
2022/06/04 02:50:57;;;;;;;5.63;3.08;;;;;;;16.00;63.55;101023.44;5013743;28;20396;-79
2022/06/04 02:53:27;;;;;;;5.32;2.95;;;;;;;15.99;63.34;101021.75;4986032;28;20045;-79
2022/06/04 02:55:58;;;;;;;4.80;2.28;;;;;;;15.99;63.76;101028.88;5047376;28;20053;-84
2022/06/04 02:58:26;;;;;;;8.30;2.40;;;;;;;15.98;63.15;101035.97;5021583;28;20562;-79
2022/06/04 03:00:58;;;;;;;4.45;2.70;;;;;;;15.98;62.95;101035.97;5011209;28;20057;-79
2022/06/04 03:03:25;;;;;;;7.72;3.05;;;;;;;15.95;62.93;101041.53;5008078;28;20128;-80
2022/06/04 03:06:01;;;;;;;5.53;2.40;;;;;;;15.92;62.78;101037.28;5034854;28;20507;-79
2022/06/04 03:08:31;;;;;;;5.90;2.88;;;;;;;15.92;63.00;101041.75;5031876;28;20100;-78
2022/06/04 03:10:59;;;;;;;4.50;2.55;;;;;;;15.91;62.49;101032.09;5028068;28;20059;-80
2022/06/04 03:13:26;;;;;;;5.85;3.08;;;;;;;15.88;62.44;101032.31;5030014;28;20480;-79
2022/06/04 03:15:53;;;;;;;6.10;2.67;;;;;;;15.86;62.23;101027.13;5027150;28;20384;-82
2022/06/04 03:18:21;;;;;;;6.18;2.65;;;;;;;15.82;62.18;101038.94;5017244;28;20135;-79
2022/06/04 03:20:48;;;;;;;2.58;2.00;;;;;;;15.80;62.06;101037.34;5029164;28;20049;-78
2022/06/04 03:23:15;;;;;;;4.50;2.80;;;;;;;15.79;62.45;101041.81;5028438;28;20355;-78
2022/06/04 03:25:43;;;;;;;4.90;2.10;;;;;;;15.72;62.27;101035.28;5012425;28;20135;-81
2022/06/04 03:28:10;;;;;;;3.85;2.38;;;;;;;15.71;62.09;101036.22;4999212;28;20048;-79
2022/06/04 03:30:38;;;;;;;5.72;2.03;;;;;;;15.70;61.83;101043.34;5005054;28;20140;-79
2022/06/04 03:33:06;;;;;;;4.50;2.15;;;;;;;15.68;61.69;101042.63;4996123;28;20059;-79
2022/06/04 03:35:35;;;;;;;4.63;2.13;;;;;;;15.67;61.39;101038.28;5010779;28;20057;-78
2022/06/04 03:38:02;;;;;;;5.90;2.20;;;;;;;15.68;61.60;101037.31;5021507;28;20055;-78
2022/06/04 03:40:30;;;;;;;5.13;2.38;;;;;;;15.65;61.04;101050.81;4993229;28;20506;-78
2022/06/04 03:42:57;;;;;;;6.45;2.45;;;;;;;15.68;61.36;101055.91;5011332;28;20045;-80
2022/06/04 03:45:26;;;;;;;5.28;2.40;;;;;;;15.68;61.33;101053.25;5014863;28;20048;-81
2022/06/04 03:47:55;;;;;;;4.53;2.40;;;;;;;15.66;61.57;101054.28;5008274;28;20056;-78
2022/06/04 03:50:25;;;;;;;7.57;2.53;;;;;;;15.68;61.46;101055.03;5013809;28;20063;-79
2022/06/04 03:52:53;;;;;;;8.38;2.85;;;;;;;15.73;61.48;101055.56;5025300;28;20139;-80
2022/06/04 03:55:20;;;;;;;5.18;2.45;;;;;;;15.70;61.30;101053.97;5028801;28;20049;-79
2022/06/04 03:57:49;;;;;;;4.47;2.47;;;;;;;15.73;60.89;101058.22;5029450;28;20476;-79
2022/06/04 04:00:21;;;;;;;6.75;2.10;;;;;;;15.76;60.54;101068.59;5028107;28;20140;-80
2022/06/04 04:02:51;;;;;;;2.53;2.15;;;;;;;15.82;60.35;101067.31;5031162;28;20061;-79
2022/06/04 04:05:25;;;;;;;7.35;3.08;;;;;;;15.86;60.22;101064.31;5029051;28;20059;-78
2022/06/04 04:07:57;;;;;;;5.03;2.45;;;;;;;15.88;60.03;101067.69;5027736;28;20420;-80
2022/06/04 04:10:28;;;;;;;5.05;2.22;;;;;;;15.87;60.17;101059.84;4995967;28;20106;-81
2022/06/04 04:13:00;;;;;;;4.57;2.25;;;;;;;15.91;59.94;101062.16;5032476;28;20049;-78
2022/06/04 04:15:29;;;;;;;6.38;2.42;;;;;;;15.92;59.78;101061.19;5014491;28;20068;-79
2022/06/04 04:17:57;;;;;;;6.85;2.83;;;;;;;15.92;59.38;101065.66;5012426;28;20492;-78
2022/06/04 04:20:32;;;;;;;5.47;2.78;;;;;;;15.95;58.99;101065.44;5046450;28;20124;-80
2022/06/04 04:23:02;;;;;;;8.52;2.85;;;;;;;15.97;59.13;101067.97;5048948;28;20080;-81
2022/06/04 04:25:30;;;;;;;5.13;2.83;;;;;;;15.99;58.87;101058.09;5009672;28;20044;-79
2022/06/04 04:27:59;;;;;;;6.72;2.83;;;;;;;15.99;58.70;101058.09;4996351;28;20075;-81
2022/06/04 04:30:31;;;;;;;2.78;2.25;;;;;;;15.99;58.49;101053.63;5001123;28;20454;-79
2022/06/04 04:32:59;;;;;;;4.22;2.28;;;;;;;15.99;58.41;101053.63;5035025;28;20076;-79
2022/06/04 04:35:29;;;;;;;4.32;2.30;;;;;;;16.04;58.29;101056.78;5013526;28;20057;-80
2022/06/04 04:37:57;;;;;;;7.32;3.13;;;;;;;16.06;58.04;101057.50;5029399;28;20087;-80
2022/06/04 04:40:26;;;;;;;7.15;2.50;;;;;;;16.04;57.82;101066.56;5014434;28;20133;-80
2022/06/04 04:42:53;;;;;;;6.05;2.10;;;;;;;16.02;57.54;101056.03;5029997;28;20052;-80
2022/06/04 04:45:23;;;;;;;5.53;2.20;;;;;;;16.05;57.66;101053.16;5010655;28;20211;-77
2022/06/04 04:47:52;;;;;;;2.83;1.77;;;;;;;16.08;57.36;101058.25;5029057;28;20073;-79
2022/06/04 04:50:25;;;;;;;5.63;2.45;;;;;;;16.11;57.38;101054.50;5025266;28;20037;-79
2022/06/04 04:52:54;;;;;;;3.78;2.42;;;;;;;16.15;57.10;101053.31;4994425;28;20833;-80
2022/06/04 04:55:29;;;;;;;2.90;2.20;;;;;;;16.19;56.72;101060.09;5011222;28;20518;-79
2022/06/04 04:57:56;;;;;;;4.93;2.90;;;;;;;16.22;56.56;101064.34;5028116;28;20132;-79
2022/06/04 05:00:25;;;;;;;3.22;2.08;;;;;;;16.24;56.24;101059.72;5010487;28;20575;-79
2022/06/04 05:02:52;;;;;;;5.25;2.70;;;;;;;16.30;56.13;101065.44;5011995;28;20061;-80
2022/06/04 05:05:20;;;;;;;3.58;1.70;;;;;;;16.32;55.82;101065.31;5011085;28;20144;-78
2022/06/04 05:07:47;;;;;;;6.53;2.22;;;;;;;16.31;55.67;101083.06;5029232;28;20117;-79
2022/06/04 05:10:15;;;;;;;6.22;2.10;;;;;;;16.33;55.69;101085.59;5029221;28;20099;-79
2022/06/04 05:12:42;;;;;;;5.80;2.30;;;;;;;16.38;55.37;101088.75;5018394;28;20504;-80
2022/06/04 05:15:10;;;;;;;6.57;2.38;;;;;;;16.44;55.37;101088.31;4991668;28;20076;-80
2022/06/04 05:17:37;;;;;;;2.88;2.10;;;;;;;16.52;54.95;101096.53;4992165;28;20149;-79
2022/06/04 05:20:05;;;;;;;6.70;2.30;;;;;;;16.60;54.87;101091.47;5013606;28;20049;-80
2022/06/04 05:22:32;;;;;;;5.00;1.90;;;;;;;16.68;54.53;101085.56;5000159;28;20049;-80
2022/06/04 05:24:59;;;;;;;5.93;2.05;;;;;;;16.76;54.55;101079.72;5032071;28;20545;-80
2022/06/04 05:27:27;;;;;;;4.55;2.22;;;;;;;16.83;54.13;101079.09;5038619;28;20148;-80
2022/06/04 05:29:54;;;;;;;3.88;2.10;;;;;;;16.95;53.31;101077.28;5035321;28;20087;-79
2022/06/04 05:32:23;;;;;;;7.10;2.13;;;;;;;17.08;53.38;101072.69;5017333;28;20045;-79
2022/06/04 05:34:50;;;;;;;4.55;2.22;;;;;;;17.18;52.91;101076.31;5015107;28;20464;-80
2022/06/04 05:37:18;;;;;;;4.97;2.38;;;;;;;17.27;52.67;101080.06;5016341;28;20057;-80
2022/06/04 05:39:45;;;;;;;7.45;2.17;;;;;;;17.36;52.57;101075.81;5046653;28;20608;-84
2022/06/04 05:42:13;;;;;;;6.03;2.35;;;;;;;17.43;52.11;101066.38;5016814;28;20071;-81
2022/06/04 05:44:40;;;;;;;5.47;2.00;;;;;;;17.53;51.67;101069.16;5016307;28;20060;-82
2022/06/04 05:47:07;;;;;;;3.83;2.00;;;;;;;17.60;50.83;101076.47;5007664;28;20055;-81
2022/06/04 05:49:35;;;;;;;4.80;2.70;;;;;;;17.62;51.32;101081.69;5051471;28;20116;-82
2022/06/04 05:52:02;;;;;;;4.90;2.00;;;;;;;17.65;51.24;101079.66;5015187;28;20136;-79
2022/06/04 05:54:29;;;;;;;6.20;2.17;;;;;;;17.69;51.24;101074.88;5032829;28;20056;-82
2022/06/04 05:56:56;;;;;;;7.65;3.10;;;;;;;17.77;50.84;101077.81;5032211;28;20057;-78
2022/06/04 05:59:24;;;;;;;2.83;1.80;;;;;;;17.88;50.94;101082.28;5033471;28;20128;-81
2022/06/04 06:01:52;;;;;;;4.47;2.50;;;;;;;17.94;50.67;101087.94;5046936;28;20280;-81
2022/06/04 06:04:22;;;;;;;7.82;2.30;;;;;;;18.04;50.61;101092.50;5014207;28;20057;-79
2022/06/04 06:06:52;;;;;;;8.27;2.80;;;;;;;18.04;50.16;101088.00;5014397;28;20377;-81
2022/06/04 06:09:21;;;;;;;3.75;2.30;;;;;;;18.14;50.48;101088.94;5016468;28;20470;-80
2022/06/04 06:11:49;;;;;;;4.85;2.22;;;;;;;18.20;50.44;101087.59;5017409;28;20050;-80
2022/06/04 06:14:17;;;;;;;6.28;2.10;;;;;;;18.24;50.39;101086.38;5029027;28;20132;-80
2022/06/04 06:16:48;;;;;;;5.18;2.22;;;;;;;18.29;49.77;101097.47;5001126;28;20094;-81
2022/06/04 06:19:20;;;;;;;6.03;2.35;;;;;;;18.39;49.80;101101.06;5055470;28;20373;-81
2022/06/04 06:21:48;;;;;;;6.38;2.10;;;;;;;18.56;49.35;101104.97;5048734;28;20455;-80
2022/06/04 06:24:16;;;;;;;5.18;1.90;;;;;;;18.71;48.89;101103.69;5048837;28;20215;-81
2022/06/04 06:26:57;;;;;;;4.75;2.17;;;;;;;18.83;48.88;101098.28;5031470;28;20044;-80
2022/06/04 06:29:28;;;;;;;3.70;2.17;;;;;;;18.92;48.69;101097.50;5026583;28;20053;-82
2022/06/04 06:31:57;;;;;;;5.53;2.15;;;;;;;19.07;48.53;101098.81;5035668;28;20067;-81
2022/06/04 06:34:26;;;;;;;8.05;2.40;;;;;;;19.20;48.05;101104.78;5031544;28;20180;-80
2022/06/04 06:36:53;;;;;;;5.03;2.53;;;;;;;19.30;47.84;101106.63;5011399;28;20053;-79
2022/06/04 06:39:20;;;;;;;4.65;2.40;;;;;;;19.43;47.67;101109.91;5033716;28;20053;-80
2022/06/04 06:41:48;;;;;;;4.55;2.58;;;;;;;19.50;47.41;101105.72;5038924;28;20139;-79
2022/06/04 06:44:15;;;;;;;3.92;2.35;;;;;;;19.59;47.52;101106.75;5019564;28;20048;-81
2022/06/04 06:46:45;;;;;;;4.03;2.28;;;;;;;19.75;47.38;101112.41;5035007;28;20075;-79
2022/06/04 06:49:20;;;;;;;7.20;2.90;;;;;;;19.86;46.19;101116.81;5010999;28;20074;-80
2022/06/04 06:51:56;;;;;;;6.40;2.30;;;;;;;19.88;46.36;101117.50;5012487;28;20045;-80
2022/06/04 06:54:26;;;;;;;5.85;2.75;;;;;;;19.82;46.14;101128.75;5019809;28;20554;-81
2022/06/04 06:56:56;;;;;;;8.95;2.53;;;;;;;19.79;46.41;101124.50;5030835;28;20059;-81
2022/06/04 06:59:27;;;;;;;5.32;2.50;;;;;;;19.79;46.46;101123.66;5014658;28;20048;-83
2022/06/04 07:01:57;;;;;;;6.65;2.90;;;;;;;19.76;46.44;101130.13;5014645;28;20513;-79
2022/06/04 07:04:25;;;;;;;6.20;2.85;;;;;;;19.79;46.61;101127.19;5022495;28;20048;-80
2022/06/04 07:06:59;;;;;;;6.00;2.72;;;;;;;19.91;46.29;101127.91;5014728;28;20045;-82
2022/06/04 07:09:31;;;;;;;4.55;2.50;;;;;;;19.96;45.53;101125.66;5014538;28;20053;-79
2022/06/04 07:11:59;;;;;;;4.95;2.38;;;;;;;20.01;45.07;101131.44;5020153;28;20141;-80
2022/06/04 07:14:27;;;;;;;3.05;2.30;;;;;;;20.07;44.36;101130.88;5014879;28;20048;-80
2022/06/04 07:16:57;;;;;;;5.82;2.47;;;;;;;20.08;44.36;101129.03;5011064;28;20460;-77
2022/06/04 07:19:25;;;;;;;6.43;2.10;;;;;;;20.28;44.14;101137.94;5031668;28;20138;-79
2022/06/04 07:21:55;;;;;;;3.97;2.28;;;;;;;20.31;43.81;101137.63;5001802;28;20052;-80
2022/06/04 07:24:23;;;;;;;5.22;2.40;;;;;;;20.38;43.61;101142.28;5033741;28;20041;-80
2022/06/04 07:26:50;;;;;;;3.70;1.85;;;;;;;20.39;43.36;101151.13;5011977;28;20040;-79
2022/06/04 07:29:17;;;;;;;3.97;2.13;;;;;;;20.53;43.21;101156.09;4998843;28;20041;-79
2022/06/04 07:31:45;;;;;;;4.78;1.90;;;;;;;20.64;42.92;101153.28;5030279;28;20429;-79
2022/06/04 07:34:12;;;;;;;4.45;2.28;;;;;;;20.68;42.43;101154.69;5012943;28;20152;-78
2022/06/04 07:36:44;;;;;;;5.38;2.47;;;;;;;20.70;42.92;101160.72;5013085;28;20520;-79
2022/06/04 07:39:14;;;;;;;4.35;2.08;;;;;;;20.72;42.57;101158.75;5030268;28;20049;-79
2022/06/04 07:41:43;;;;;;;2.97;2.00;;;;;;;20.62;42.41;101157.91;5021865;28;20119;-83
2022/06/04 07:44:14;;;;;;;4.65;2.08;;;;;;;20.55;42.65;101164.81;5014948;28;20037;-79
2022/06/04 07:46:44;;;;;;;2.80;2.05;;;;;;;20.47;42.71;101167.31;4994256;28;20049;-83
2022/06/04 07:49:12;;;;;;;4.32;2.30;;;;;;;20.34;42.99;101172.94;5002688;28;20169;-78
2022/06/04 07:51:41;;;;;;;3.30;2.10;;;;;;;20.27;43.17;101173.69;4998909;28;20168;-78
2022/06/04 07:54:09;;;;;;;3.30;2.53;;;;;;;20.13;43.18;101181.13;5014384;28;20041;-79
2022/06/04 07:56:37;;;;;;;7.45;2.35;;;;;;;20.05;43.24;101174.78;5025461;28;20086;-79
2022/06/04 07:59:06;;;;;;;2.35;1.63;;;;;;;19.95;43.59;101182.78;5013236;28;20395;-80
2022/06/04 08:01:34;;;;;;;4.13;2.10;;;;;;;19.90;43.86;101176.97;5012282;28;20497;-80
2022/06/04 08:04:02;;;;;;;3.80;2.20;;;;;;;19.83;43.98;101189.22;5030824;28;20057;-81
2022/06/04 08:06:32;;;;;;;3.95;2.03;;;;;;;19.80;44.44;101194.81;4999196;28;20050;-79
2022/06/04 08:09:00;;;;;;;3.97;2.38;;;;;;;19.76;44.23;101193.38;4996649;28;20344;-78
2022/06/04 08:11:37;;;;;;;4.40;2.10;;;;;;;19.71;44.58;101188.47;5037666;28;20511;-78
2022/06/04 08:14:11;;;;;;;6.25;2.00;;;;;;;19.72;44.46;101195.47;5015688;28;20318;-81
2022/06/04 08:16:42;;;;;;;8.55;2.08;;;;;;;19.70;44.56;101192.97;5031021;28;20079;-79
2022/06/04 08:19:13;;;;;;;3.33;2.03;;;;;;;19.68;44.93;101192.25;5012699;28;20139;-80
2022/06/04 08:21:41;;;;;;;4.35;2.00;;;;;;;19.59;45.36;101187.69;5016635;28;20064;-78
2022/06/04 08:24:12;;;;;;;4.47;1.83;;;;;;;19.54;45.09;101199.75;5027260;28;20045;-77
2022/06/04 08:26:42;;;;;;;2.67;1.85;;;;;;;19.47;45.57;101194.94;5016231;28;20072;-78
2022/06/04 08:29:09;;;;;;;6.40;1.85;;;;;;;19.52;45.15;101202.56;5030268;28;20072;-80
2022/06/04 08:31:37;;;;;;;4.70;1.88;;;;;;;19.53;45.39;101200.72;5026769;28;20049;-77
2022/06/04 08:34:05;;;;;;;2.65;1.67;;;;;;;19.57;45.38;101203.00;5030402;28;20040;-78
2022/06/04 08:36:33;;;;;;;3.10;1.65;;;;;;;19.64;45.42;101201.53;5034057;28;20048;-78
2022/06/04 08:39:01;;;;;;;4.28;2.30;;;;;;;19.72;45.16;101203.50;5028800;28;20164;-81
2022/06/04 08:41:35;;;;;;;5.90;2.25;;;;;;;19.79;45.25;101201.97;5026165;28;20037;-78
2022/06/04 08:44:27;;;;;;;4.78;1.75;;;;;;;19.89;45.85;101202.84;5028488;28;20476;-78
2022/06/04 08:47:00;;;;;;;4.07;1.90;;;;;;;19.98;45.68;101212.72;4995306;28;20517;-78
2022/06/04 08:49:35;;;;;;;4.10;1.85;;;;;;;19.99;45.47;101208.22;5003882;28;20480;-78
2022/06/04 08:52:11;;;;;;;3.33;2.13;;;;;;;20.06;45.58;101206.69;5045528;28;20130;-79
2022/06/04 08:57:33;;;;;;;;;;;;;;;20.29;45.04;101206.44;5015127;28;20526;-77
2022/06/04 09:00:09;;;;;;;4.97;2.33;;;;;;;20.41;45.04;101202.66;5015639;28;20283;-79
2022/06/04 09:02:57;;;;;;;3.72;2.03;;;;;;;20.57;44.59;101202.97;5037697;28;20472;-79
2022/06/04 09:05:56;;;;;;;6.10;2.42;;;;;;;20.79;44.60;101204.50;5006768;28;20060;-80
2022/06/04 09:09:03;;;;;;;6.05;2.22;;;;;;;20.96;44.17;101213.66;4973710;28;20082;-80
2022/06/04 09:11:53;;;;;;;6.18;2.78;;;;;;;21.17;44.38;101208.13;4990675;28;20492;-79
2022/06/04 09:14:27;;;;;;;7.35;2.53;;;;;;;21.40;43.93;101198.78;5011132;28;20538;-79
2022/06/04 09:17:10;;;;;;;3.88;2.60;;;;;;;21.66;43.35;101215.03;5008307;28;20542;-80
2022/06/04 09:19:39;;;;;;;7.70;2.78;;;;;;;21.83;43.06;101215.22;5012766;28;20155;-81
2022/06/04 09:22:34;;;;;;;3.92;2.05;;;;;;;21.94;42.50;101217.69;5000791;28;20576;-80
2022/06/04 09:25:01;;;;;;;4.88;2.05;;;;;;;21.96;42.68;101229.09;5027990;28;20084;-84
2022/06/04 09:27:51;;;;;;;4.15;2.13;;;;;;;21.90;42.05;101237.75;5010864;28;20132;-79
2022/06/04 09:30:37;;;;;;;4.18;2.08;;;;;;;21.84;42.24;101233.84;5017167;28;20045;-80
2022/06/04 09:33:23;;;;;;;;;;;;;;;21.80;42.30;101234.28;5013871;28;20060;-80
2022/06/04 09:35:54;;;;;;;6.28;1.83;;;;;;;21.83;41.84;101231.28;5023189;28;20015;-80
2022/06/04 09:38:27;;;;;;;3.03;1.70;;;;;;;21.82;40.89;101241.16;5001174;28;20041;-78
2022/06/04 09:41:01;;;;;;;4.50;2.20;;;;;;;21.75;41.19;101229.38;5024826;28;20484;-78
2022/06/04 09:43:30;;;;;;;2.73;1.70;;;;;;;21.78;41.20;101231.72;5035941;28;20057;-79
2022/06/04 09:46:06;;;;;;;7.25;2.10;;;;;;;21.79;41.16;101236.09;5025656;28;20149;-80
2022/06/04 09:48:37;;;;;;;4.72;1.80;;;;;;;21.81;41.37;101236.81;5014263;28;20593;-81
2022/06/04 09:51:15;;;;;;;4.00;2.08;;;;;;;21.98;40.95;101240.53;5026817;28;20140;-81
2022/06/04 09:53:46;;;;;;;6.18;1.85;;;;;;;22.09;41.10;101242.16;5013142;28;20053;-81
2022/06/04 09:56:16;;;;;;;3.78;1.52;;;;;;;22.09;40.71;101245.69;5007737;28;20213;-79
2022/06/04 09:58:46;;;;;;;6.75;1.85;;;;;;;22.22;40.67;101248.88;5010496;28;20049;-81
2022/06/04 10:01:16;;;;;;;6.38;2.03;;;;;;;22.38;40.28;101247.34;5009155;28;20148;-79
2022/06/04 10:03:45;;;;;;;6.05;1.80;;;;;;;22.54;40.15;101244.00;5030021;28;20216;-78
2022/06/04 10:06:16;;;;;;;6.05;2.17;;;;;;;22.62;39.86;101247.63;5014059;28;20040;-80
2022/06/04 10:11:36;;;;;;;6.32;2.70;;;;;;;22.84;39.40;101251.66;5021923;28;20061;-78
2022/06/04 10:14:03;;;;;;;8.13;2.17;;;;;;;22.96;38.89;101247.75;5017088;28;20132;-81
2022/06/04 10:16:34;;;;;;;3.92;2.42;;;;;;;23.22;38.81;101253.16;5012165;28;20053;-78
2022/06/04 10:19:12;;;;;;;3.72;2.03;;;;;;;23.30;38.80;101251.53;5032430;28;20624;-80
2022/06/04 10:21:41;;;;;;;4.10;1.45;;;;;;;23.57;38.57;101253.22;5030349;28;20053;-80
2022/06/04 10:24:24;;;;;;;4.70;1.67;;;;;;;23.78;38.22;101253.69;5023004;28;20136;-78
2022/06/04 10:27:03;;;;;;;3.33;1.88;;;;;;;23.90;38.17;101256.91;4995045;28;20045;-80
2022/06/04 10:29:55;;;;;;;4.70;2.05;;;;;;;24.13;37.65;101252.63;5038189;28;20048;-79
2022/06/04 10:32:38;;;;;;;4.00;1.60;;;;;;;24.39;37.64;101236.41;4998891;28;20052;-78
2022/06/04 10:35:47;;;;;;;2.70;1.42;;;;;;;24.66;36.79;101254.09;5024567;28;20364;-78
2022/06/04 10:38:27;;;;;;;5.47;1.70;;;;;;;24.86;36.31;101245.72;5026470;28;20049;-80
2022/06/04 10:41:04;;;;;;;5.95;2.13;;;;;;;24.79;36.45;101239.31;5013845;28;20361;-79
2022/06/04 10:43:59;;;;;;;3.38;1.63;;;;;;;24.86;36.04;101238.47;5012672;28;20076;-78
2022/06/04 10:46:48;;;;;;;2.38;1.50;;;;;;;24.90;35.70;101238.97;5017895;28;20381;-80
2022/06/04 10:49:54;;;;;;;3.13;1.33;;;;;;;24.95;35.74;101225.84;5032416;28;20041;-80
2022/06/04 10:52:29;;;;;;;3.67;1.40;;;;;;;24.97;35.84;101224.66;5003408;28;20061;-78
2022/06/04 10:55:16;;;;;;;3.15;1.60;;;;;;;25.13;35.42;101215.75;5006551;28;20053;-79
2022/06/04 10:58:28;;;;;;;4.05;1.63;;;;;;;25.58;34.62;101217.00;5016651;28;20063;-79
2022/06/04 11:01:11;;;;;;;3.63;1.60;;;;;;;25.92;34.43;101221.25;5013537;28;20052;-78
2022/06/04 11:03:52;;;;;;;3.92;1.60;;;;;;;26.08;34.59;101214.94;5035107;28;20068;-79
2022/06/04 11:06:36;;;;;;;4.60;1.92;;;;;;;26.23;34.17;101210.44;5029903;28;20045;-79
2022/06/04 11:09:19;;;;;;;2.15;1.60;;;;;;;26.44;33.37;101212.53;5017604;28;20480;-79
2022/06/04 11:11:53;;;;;;;3.60;1.77;;;;;;;26.46;32.97;101214.03;5013772;28;20045;-79
2022/06/04 11:14:26;;;;;;;5.00;1.75;;;;;;;26.46;33.79;101210.47;5031804;28;20064;-80
2022/06/04 11:17:00;;;;;;;3.75;1.77;;;;;;;26.77;33.11;101216.66;5011798;28;20050;-80
2022/06/04 11:19:38;;;;;;;3.17;1.90;;;;;;;26.92;32.72;101205.88;5014939;28;20122;-80
2022/06/04 11:22:45;;;;;;;2.53;1.40;;;;;;;26.99;32.62;101206.00;4998252;28;20041;-79
2022/06/04 11:25:24;;;;;;;;;;;;;;;27.32;31.64;101203.81;4998906;28;20069;-80
2022/06/04 11:28:01;;;;;;;3.90;1.50;;;;;;;27.28;31.77;101202.50;5025532;28;19921;-80
2022/06/04 11:30:50;;;;;;;4.63;1.75;;;;;;;27.19;31.85;101212.56;5006684;28;20048;-81
2022/06/04 11:33:32;;;;;;;2.53;1.63;;;;;;;27.30;31.99;101203.16;5049148;28;20045;-78
2022/06/04 11:36:06;;;;;;;2.35;1.65;;;;;;;27.56;31.81;101202.69;5028550;28;20133;-80
2022/06/04 11:39:02;;;;;;;2.55;1.50;;;;;;;27.71;30.97;101208.91;5050437;28;20417;-78
2022/06/04 11:41:52;;;;;;;3.20;1.50;;;;;;;27.81;31.40;101207.81;5030511;28;20072;-79
2022/06/04 11:44:51;;;;;;;4.60;1.55;;;;;;;27.60;31.45;101198.56;5025930;28;20056;-79
2022/06/04 11:47:49;;;;;;;4.13;1.58;;;;;;;27.59;30.77;101204.19;5000943;28;20148;-80
2022/06/04 11:50:38;;;;;;;2.30;1.40;;;;;;;27.42;31.15;101208.94;4990402;28;20048;-79
2022/06/04 11:53:44;;;;;;;1.65;1.15;;;;;;;27.45;30.81;101222.09;5023359;28;20067;-79
2022/06/04 11:56:25;;;;;;;1.77;1.48;;;;;;;27.40;30.88;101232.63;4991750;28;20042;-81
2022/06/04 11:59:37;;;;;;;5.88;2.03;;;;;;;27.48;31.21;101222.56;5017714;28;20452;-79
2022/06/04 12:02:13;;;;;;;2.58;1.55;;;;;;;27.74;31.23;101227.53;5030012;28;20056;-78
2022/06/04 12:05:09;;;;;;;2.33;1.58;;;;;;;27.90;30.15;101231.88;5009001;28;20578;-80
2022/06/04 12:07:39;;;;;;;4.20;1.60;;;;;;;27.70;31.06;101230.75;5030393;28;20041;-78
2022/06/04 12:10:44;;;;;;;2.47;1.70;;;;;;;27.73;30.96;101224.97;5019561;28;20060;-78